Furenas — OZ2085 — position and weather

sailwx.info

Track history (hours):
 
Tides and Currents Weather Stations Pressure Air Temp Water Temp Dewpoint Dewpoint Depression Visibility Wind Speed Wind Dir Waves Ship Positions

Furenas

Last reported at 2015-Jan-24 21:17 UTC. Time now 2015-Jan-26 14:33 UTC.
Position N 52°25' E 004°47'.

Length 137 m; draft 8 m.

Type: Ship (hazmat cat A). MMSI: 231734000.

Date/timePositionNaut miles runAvg speedWind from/ knotsBaromVisibWave heightAir tempDewpointWater temp
2015-Jan-24 21:17N 52°25' E 004°47'0 0.0
2015-Jan-24 20:29N 52°25' E 004°47'0 0.0
2015-Jan-24 19:33N 52°25' E 004°47'3 3.4
2015-Jan-24 18:33N 52°27' E 004°42'4 3.6
2015-Jan-24 17:33N 52°28' E 004°37'1 1.3
2015-Jan-24 16:33N 52°28' E 004°34'9 9.2
2015-Jan-24 15:33N 52°29' E 004°19'7 6.7
2015-Jan-24 14:33N 52°29' E 004°08'7 6.6
2015-Jan-24 13:33N 52°27' E 003°58'4 3.8
2015-Jan-24 12:33N 52°26' E 003°52'8 7.4
2015-Jan-24 11:25N 52°23' E 003°39'6410.9
2015-Jan-24 05:32N 51°37' E 002°25'1312.8
2015-Jan-24 04:32N 51°27' E 002°13'1313.2
2015-Jan-24 03:34N 51°15' E 002°05'1414.3
2015-Jan-24 02:34N 51°07' E 001°46'1615.5
2015-Jan-24 01:33N 50°57' E 001°27'9910.9
2015-Jan-23 16:33N 49°40' W 000°10'1010.2
2015-Jan-23 15:33N 49°30' W 000°10'1111.4
2015-Jan-23 14:34N 49°26' E 000°07'1313.0
2015-Jan-23 13:34N 49°28' E 000°26'4 0.1
2015-Jan-21 22:30N 49°28' E 000°32'1 0.6
2015-Jan-21 21:27N 49°28' E 000°33'7 7.8
2015-Jan-21 20:33N 49°26' E 000°22'1110.6
2015-Jan-21 19:34N 49°26' E 000°06'8 7.2
2015-Jan-21 18:31N 49°28' W 000°05'0 0.0
2015-Jan-21 17:31N 49°28' W 000°05'0 0.0
2015-Jan-21 16:31N 49°28' W 000°05'0 0.0
2015-Jan-21 15:31N 49°28' W 000°05'0 0.0
2015-Jan-21 14:31N 49°28' W 000°05'0 0.0
2015-Jan-21 13:31N 49°28' W 000°05'0 0.0
2015-Jan-21 12:31N 49°29' W 000°05'0 0.0
2015-Jan-21 11:31N 49°29' W 000°05'0 0.1
2015-Jan-21 10:31N 49°29' W 000°05'0 0.0
2015-Jan-21 09:31N 49°29' W 000°05'0 0.0
2015-Jan-21 08:31N 49°29' W 000°05'0 0.1
2015-Jan-21 07:33N 49°29' W 000°05'0 0.2
2015-Jan-21 06:33N 49°28' W 000°05'0 0.0
2015-Jan-21 05:33N 49°28' W 000°05'0 0.0
2015-Jan-21 04:33N 49°28' W 000°05'0 0.0
2015-Jan-21 03:33N 49°28' W 000°05'3 3.1
2015-Jan-21 02:33N 49°30' W 000°01'8 7.6
2015-Jan-21 01:33N 49°29' E 000°10'1 0.6
2015-Jan-21 00:31N 49°29' E 000°11'0 0.0
2015-Jan-20 23:31N 49°29' E 000°11'0 0.0
2015-Jan-20 02:33N 49°29' E 000°11'1 0.6
2015-Jan-20 01:33N 49°29' E 000°10'7 7.1
2015-Jan-20 00:34N 49°30' W 000°00'3 2.5
2015-Jan-19 23:28N 49°30' W 000°04'0 0.1
2015-Jan-19 22:31N 49°30' W 000°04'0 0.0
2015-Jan-19 21:31N 49°30' W 000°04'0 0.0
2015-Jan-19 20:28N 49°30' W 000°04'0 0.0
2015-Jan-19 19:28N 49°30' W 000°04'0 0.1
2015-Jan-19 18:31N 49°30' W 000°04'0 0.1
2015-Jan-19 17:31N 49°30' W 000°04'0 0.1
2015-Jan-19 16:31N 49°30' W 000°05'0 0.0
2015-Jan-19 15:34N 49°30' W 000°05'0 0.0
2015-Jan-19 14:34N 49°30' W 000°05'0 0.0
2015-Jan-19 13:33N 49°30' W 000°05'0 0.0
2015-Jan-19 12:33N 49°30' W 000°05'0 0.0
2015-Jan-19 11:33N 49°30' W 000°05'0 0.1
2015-Jan-19 10:33N 49°30' W 000°05'0 0.1
2015-Jan-19 09:33N 49°30' W 000°04'0 0.1
2015-Jan-19 08:33N 49°30' W 000°04'0 0.0
2015-Jan-19 07:33N 49°30' W 000°04'0 0.0
2015-Jan-19 06:33N 49°30' W 000°04'0 0.0
2015-Jan-19 05:33N 49°30' W 000°04'0 0.1
2015-Jan-19 04:33N 49°30' W 000°05'0 0.1
2015-Jan-19 03:33N 49°30' W 000°05'0 0.0
2015-Jan-19 02:33N 49°30' W 000°05'0 0.0
2015-Jan-19 01:33N 49°30' W 000°05'0 0.0
2015-Jan-19 00:33N 49°30' W 000°05'0 0.0
2015-Jan-18 23:33N 49°30' W 000°05'0 0.1
2015-Jan-18 22:33N 49°30' W 000°04'0 0.0
2015-Jan-18 21:33N 49°30' W 000°04'0 0.0
2015-Jan-18 20:33N 49°30' W 000°04'0 0.1
2015-Jan-18 19:33N 49°30' W 000°04'0 0.0
2015-Jan-18 18:33N 49°30' W 000°04'0 0.0
2015-Jan-18 17:33N 49°30' W 000°04'0 0.0
2015-Jan-18 16:33N 49°30' W 000°04'0 0.1
2015-Jan-18 15:33N 49°30' W 000°04'0 0.0
2015-Jan-18 14:33N 49°30' W 000°04'0 0.0
2015-Jan-18 13:33N 49°30' W 000°04'0 0.0
2015-Jan-18 12:33N 49°30' W 000°04'0 0.1
2015-Jan-18 11:33N 49°30' W 000°04'0 0.0
2015-Jan-18 10:33N 49°30' W 000°04'0 0.0
2015-Jan-18 09:33N 49°30' W 000°04'0 0.0
2015-Jan-18 08:33N 49°30' W 000°04'0 0.0
2015-Jan-18 07:33N 49°30' W 000°04'0 0.0
2015-Jan-18 06:27N 49°30' W 000°04'0 0.0
2015-Jan-18 05:33N 49°30' W 000°04'0 0.0
2015-Jan-18 04:33N 49°30' W 000°04'0 0.0
2015-Jan-18 03:27N 49°30' W 000°04'0 0.1
2015-Jan-18 02:27N 49°30' W 000°04'0 0.1
2015-Jan-18 01:32N 49°30' W 000°04'0 0.0
2015-Jan-18 00:32N 49°30' W 000°04'0 0.0
2015-Jan-17 23:32N 49°30' W 000°04'0 0.0
2015-Jan-17 22:32N 49°30' W 000°04'0 0.0
2015-Jan-17 21:26N 49°30' W 000°04'0 0.0
2015-Jan-17 20:29N 49°30' W 000°04'4 3.8
2015-Jan-17 19:33N 49°32' W 000°09'1211.8
2015-Jan-17 18:32N 49°37' W 000°26'30510.9
2015-Jan-16 14:34N 51°29' W 007°52'1212.0
2015-Jan-16 13:34N 51°37' W 008°06'1111.4
2015-Jan-16 12:34N 51°47' W 008°15'3 3.1
2015-Jan-16 11:32N 51°50' W 008°16'0 0.0
2015-Jan-16 10:32N 51°50' W 008°16'0 0.0
2015-Jan-15 14:34N 51°50' W 008°16'4 3.9
2015-Jan-15 13:34N 51°46' W 008°16'0 0.2
2015-Jan-15 12:33N 51°46' W 008°16'0 0.0
2015-Jan-15 11:31N 51°46' W 008°16'0 0.0
2015-Jan-15 10:32N 51°46' W 008°16'0 0.0
2015-Jan-15 09:32N 51°46' W 008°16'0 0.0
2015-Jan-15 08:33N 51°46' W 008°16'0 0.2
2015-Jan-15 07:33N 51°46' W 008°16'1 1.4
2015-Jan-15 06:33N 51°46' W 008°13'1 1.3
2015-Jan-15 05:33N 51°44' W 008°14'1 1.5
2015-Jan-15 04:34N 51°43' W 008°14'2 2.0
2015-Jan-15 03:33N 51°45' W 008°13'0 0.5
2015-Jan-15 02:33N 51°44' W 008°14'1 1.3
2015-Jan-15 01:33N 51°43' W 008°14'2 2.5
2015-Jan-15 00:34N 51°46' W 008°13'1 0.5
2015-Jan-14 23:33N 51°45' W 008°13'1 1.4
2015-Jan-14 22:34N 51°44' W 008°14'2 2.0
2015-Jan-14 21:33N 51°46' W 008°13'  
Track history (hours):
 
Tides and Currents Weather Stations Pressure Air Temp Water Temp Dewpoint Dewpoint Depression Visibility Wind Speed Wind Dir Waves Ship Positions

Furenas

Last reported at 2015-Jan-24 21:17 UTC. Time now 2015-Jan-26 14:33 UTC.
Position N 52°25' E 004°47'.

Length 137 m; draft 8 m.

Type: Ship (hazmat cat A). MMSI: 231734000.

Date/timePositionNaut miles runAvg speedWind from/ knotsBaromVisibWave heightAir tempDewpointWater temp
2015-Jan-24 21:17N 52°25' E 004°47'0 0.0
2015-Jan-24 20:29N 52°25' E 004°47'0 0.0
2015-Jan-24 19:33N 52°25' E 004°47'3 3.4
2015-Jan-24 18:33N 52°27' E 004°42'4 3.6
2015-Jan-24 17:33N 52°28' E 004°37'1 1.3
2015-Jan-24 16:33N 52°28' E 004°34'9 9.2
2015-Jan-24 15:33N 52°29' E 004°19'7 6.7
2015-Jan-24 14:33N 52°29' E 004°08'7 6.6
2015-Jan-24 13:33N 52°27' E 003°58'4 3.8
2015-Jan-24 12:33N 52°26' E 003°52'8 7.4
2015-Jan-24 11:25N 52°23' E 003°39'6410.9
2015-Jan-24 05:32N 51°37' E 002°25'1312.8
2015-Jan-24 04:32N 51°27' E 002°13'1313.2
2015-Jan-24 03:34N 51°15' E 002°05'1414.3
2015-Jan-24 02:34N 51°07' E 001°46'1615.5
2015-Jan-24 01:33N 50°57' E 001°27'9910.9
2015-Jan-23 16:33N 49°40' W 000°10'1010.2
2015-Jan-23 15:33N 49°30' W 000°10'1111.4
2015-Jan-23 14:34N 49°26' E 000°07'1313.0
2015-Jan-23 13:34N 49°28' E 000°26'4 0.1
2015-Jan-21 22:30N 49°28' E 000°32'1 0.6
2015-Jan-21 21:27N 49°28' E 000°33'7 7.8
2015-Jan-21 20:33N 49°26' E 000°22'1110.6
2015-Jan-21 19:34N 49°26' E 000°06'8 7.2
2015-Jan-21 18:31N 49°28' W 000°05'0 0.0
2015-Jan-21 17:31N 49°28' W 000°05'0 0.0
2015-Jan-21 16:31N 49°28' W 000°05'0 0.0
2015-Jan-21 15:31N 49°28' W 000°05'0 0.0
2015-Jan-21 14:31N 49°28' W 000°05'0 0.0
2015-Jan-21 13:31N 49°28' W 000°05'0 0.0
2015-Jan-21 12:31N 49°29' W 000°05'0 0.0
2015-Jan-21 11:31N 49°29' W 000°05'0 0.1
2015-Jan-21 10:31N 49°29' W 000°05'0 0.0
2015-Jan-21 09:31N 49°29' W 000°05'0 0.0
2015-Jan-21 08:31N 49°29' W 000°05'0 0.1
2015-Jan-21 07:33N 49°29' W 000°05'0 0.2
2015-Jan-21 06:33N 49°28' W 000°05'0 0.0
2015-Jan-21 05:33N 49°28' W 000°05'0 0.0
2015-Jan-21 04:33N 49°28' W 000°05'0 0.0
2015-Jan-21 03:33N 49°28' W 000°05'3 3.1
2015-Jan-21 02:33N 49°30' W 000°01'8 7.6
2015-Jan-21 01:33N 49°29' E 000°10'1 0.6
2015-Jan-21 00:31N 49°29' E 000°11'0 0.0
2015-Jan-20 23:31N 49°29' E 000°11'0 0.0
2015-Jan-20 02:33N 49°29' E 000°11'1 0.6
2015-Jan-20 01:33N 49°29' E 000°10'7 7.1
2015-Jan-20 00:34N 49°30' W 000°00'3 2.5
2015-Jan-19 23:28N 49°30' W 000°04'0 0.1
2015-Jan-19 22:31N 49°30' W 000°04'0 0.0
2015-Jan-19 21:31N 49°30' W 000°04'0 0.0
2015-Jan-19 20:28N 49°30' W 000°04'0 0.0
2015-Jan-19 19:28N 49°30' W 000°04'0 0.1
2015-Jan-19 18:31N 49°30' W 000°04'0 0.1
2015-Jan-19 17:31N 49°30' W 000°04'0 0.1
2015-Jan-19 16:31N 49°30' W 000°05'0 0.0
2015-Jan-19 15:34N 49°30' W 000°05'0 0.0
2015-Jan-19 14:34N 49°30' W 000°05'0 0.0
2015-Jan-19 13:33N 49°30' W 000°05'0 0.0
2015-Jan-19 12:33N 49°30' W 000°05'0 0.0
2015-Jan-19 11:33N 49°30' W 000°05'0 0.1
2015-Jan-19 10:33N 49°30' W 000°05'0 0.1
2015-Jan-19 09:33N 49°30' W 000°04'0 0.1
2015-Jan-19 08:33N 49°30' W 000°04'0 0.0
2015-Jan-19 07:33N 49°30' W 000°04'0 0.0
2015-Jan-19 06:33N 49°30' W 000°04'0 0.0
2015-Jan-19 05:33N 49°30' W 000°04'0 0.1
2015-Jan-19 04:33N 49°30' W 000°05'0 0.1
2015-Jan-19 03:33N 49°30' W 000°05'0 0.0
2015-Jan-19 02:33N 49°30' W 000°05'0 0.0
2015-Jan-19 01:33N 49°30' W 000°05'0 0.0
2015-Jan-19 00:33N 49°30' W 000°05'0 0.0
2015-Jan-18 23:33N 49°30' W 000°05'0 0.1
2015-Jan-18 22:33N 49°30' W 000°04'0 0.0
2015-Jan-18 21:33N 49°30' W 000°04'0 0.0
2015-Jan-18 20:33N 49°30' W 000°04'0 0.1
2015-Jan-18 19:33N 49°30' W 000°04'0 0.0
2015-Jan-18 18:33N 49°30' W 000°04'0 0.0
2015-Jan-18 17:33N 49°30' W 000°04'0 0.0
2015-Jan-18 16:33N 49°30' W 000°04'0 0.1
2015-Jan-18 15:33N 49°30' W 000°04'0 0.0
2015-Jan-18 14:33N 49°30' W 000°04'0 0.0
2015-Jan-18 13:33N 49°30' W 000°04'0 0.0
2015-Jan-18 12:33N 49°30' W 000°04'0 0.1
2015-Jan-18 11:33N 49°30' W 000°04'0 0.0
2015-Jan-18 10:33N 49°30' W 000°04'0 0.0
2015-Jan-18 09:33N 49°30' W 000°04'0 0.0
2015-Jan-18 08:33N 49°30' W 000°04'0 0.0
2015-Jan-18 07:33N 49°30' W 000°04'0 0.0
2015-Jan-18 06:27N 49°30' W 000°04'0 0.0
2015-Jan-18 05:33N 49°30' W 000°04'0 0.0
2015-Jan-18 04:33N 49°30' W 000°04'0 0.0
2015-Jan-18 03:27N 49°30' W 000°04'0 0.1
2015-Jan-18 02:27N 49°30' W 000°04'0 0.1
2015-Jan-18 01:32N 49°30' W 000°04'0 0.0
2015-Jan-18 00:32N 49°30' W 000°04'0 0.0
2015-Jan-17 23:32N 49°30' W 000°04'0 0.0
2015-Jan-17 22:32N 49°30' W 000°04'0 0.0
2015-Jan-17 21:26N 49°30' W 000°04'0 0.0
2015-Jan-17 20:29N 49°30' W 000°04'4 3.8
2015-Jan-17 19:33N 49°32' W 000°09'1211.8
2015-Jan-17 18:32N 49°37' W 000°26'30510.9
2015-Jan-16 14:34N 51°29' W 007°52'1212.0
2015-Jan-16 13:34N 51°37' W 008°06'1111.4
2015-Jan-16 12:34N 51°47' W 008°15'3 3.1
2015-Jan-16 11:32N 51°50' W 008°16'0 0.0
2015-Jan-16 10:32N 51°50' W 008°16'0 0.0
2015-Jan-15 14:34N 51°50' W 008°16'4 3.9
2015-Jan-15 13:34N 51°46' W 008°16'0 0.2
2015-Jan-15 12:33N 51°46' W 008°16'0 0.0
2015-Jan-15 11:31N 51°46' W 008°16'0 0.0
2015-Jan-15 10:32N 51°46' W 008°16'0 0.0
2015-Jan-15 09:32N 51°46' W 008°16'0 0.0
2015-Jan-15 08:33N 51°46' W 008°16'0 0.2
2015-Jan-15 07:33N 51°46' W 008°16'1 1.4
2015-Jan-15 06:33N 51°46' W 008°13'1 1.3
2015-Jan-15 05:33N 51°44' W 008°14'1 1.5
2015-Jan-15 04:34N 51°43' W 008°14'2 2.0
2015-Jan-15 03:33N 51°45' W 008°13'0 0.5
2015-Jan-15 02:33N 51°44' W 008°14'1 1.3
2015-Jan-15 01:33N 51°43' W 008°14'2 2.5
2015-Jan-15 00:34N 51°46' W 008°13'1 0.5
2015-Jan-14 23:33N 51°45' W 008°13'1 1.4
2015-Jan-14 22:34N 51°44' W 008°14'2 2.0
2015-Jan-14 21:33N 51°46' W 008°13'  

Dump ship's entire track history